createdAt,value
2023-02-13T00:00:31.756Z,15.73
2023-02-13T00:02:58.606Z,16.55
2023-02-13T00:05:25.308Z,16.63
2023-02-13T00:07:51.967Z,15.90
2023-02-13T00:10:18.968Z,16.70
2023-02-13T00:12:45.775Z,15.35
2023-02-13T00:15:12.716Z,17.08
2023-02-13T00:17:39.491Z,13.55
2023-02-13T00:20:07.037Z,17.27
2023-02-13T00:22:38.179Z,17.50
2023-02-13T00:25:06.292Z,17.63
2023-02-13T00:27:33.034Z,14.82
2023-02-13T00:29:59.843Z,17.42
2023-02-13T00:32:26.639Z,17.60
2023-02-13T00:34:55.088Z,13.85
2023-02-13T00:37:23.184Z,12.45
2023-02-13T00:39:52.582Z,14.30
2023-02-13T00:42:20.594Z,15.00
2023-02-13T00:44:47.289Z,15.25
2023-02-13T00:47:14.929Z,15.65
2023-02-13T00:49:41.944Z,15.18
2023-02-13T00:52:08.641Z,15.43
2023-02-13T00:54:35.309Z,13.48
2023-02-13T00:57:02.201Z,15.75
2023-02-13T00:59:29.007Z,14.77
2023-02-13T01:01:55.933Z,16.55
2023-02-13T01:04:22.709Z,15.68
2023-02-13T01:06:49.372Z,14.13
2023-02-13T01:09:16.083Z,15.07
2023-02-13T01:11:43.084Z,15.68
2023-02-13T01:14:09.765Z,14.98
2023-02-13T01:16:36.526Z,14.75
2023-02-13T01:19:04.712Z,15.43
2023-02-13T01:21:31.426Z,14.48
2023-02-13T01:23:58.075Z,13.40
2023-02-13T01:26:25.108Z,13.98
2023-02-13T01:28:54.267Z,14.55
2023-02-13T01:31:21.427Z,14.43
2023-02-13T01:33:50.179Z,15.30
2023-02-13T01:36:16.852Z,14.63
2023-02-13T01:38:44.048Z,13.57
2023-02-13T01:41:11.171Z,13.30
2023-02-13T01:43:55.959Z,12.60
2023-02-13T01:46:30.766Z,15.20
2023-02-13T01:49:03.176Z,14.23
2023-02-13T01:54:04.335Z,12.90
2023-02-13T01:56:37.680Z,17.23
2023-02-13T01:59:10.037Z,15.82
2023-02-13T02:01:37.298Z,16.73
2023-02-13T02:04:11.996Z,15.35
2023-02-13T02:06:46.897Z,13.60
2023-02-13T02:09:26.535Z,14.43
2023-02-13T02:12:00.218Z,15.90
2023-02-13T02:14:28.038Z,15.07
2023-02-13T02:16:57.082Z,14.95
2023-02-13T02:19:44.794Z,12.63
2023-02-13T02:22:42.668Z,13.65
2023-02-13T02:25:24.281Z,14.70
2023-02-13T02:28:35.619Z,13.48
2023-02-13T02:31:40.216Z,13.18
2023-02-13T02:34:25.924Z,13.50
2023-02-13T02:36:59.068Z,10.52
2023-02-13T02:39:54.025Z,12.10
2023-02-13T02:42:38.299Z,12.68
2023-02-13T02:45:28.891Z,12.32
2023-02-13T02:48:37.979Z,13.52
2023-02-13T02:51:39.037Z,12.65
2023-02-13T02:54:35.037Z,12.27
2023-02-13T02:57:11.689Z,10.82
2023-02-13T03:00:00.340Z,11.45
2023-02-13T03:02:48.827Z,10.77
2023-02-13T03:05:43.098Z,12.88
2023-02-13T03:08:10.573Z,12.20
2023-02-13T03:10:57.126Z,10.20
2023-02-13T03:13:38.331Z,9.63
2023-02-13T03:16:24.623Z,11.00
2023-02-13T03:19:14.735Z,12.77
2023-02-13T03:22:21.535Z,10.43
2023-02-13T03:25:08.013Z,10.55
2023-02-13T03:28:00.154Z,9.77
2023-02-13T03:30:45.076Z,9.35
2023-02-13T03:33:36.701Z,10.13
2023-02-13T03:36:38.081Z,6.55
2023-02-13T03:39:09.388Z,8.77
2023-02-13T03:41:44.066Z,9.73
2023-02-13T03:44:21.412Z,7.03
2023-02-13T03:46:51.319Z,8.10
2023-02-13T03:49:41.674Z,9.27
2023-02-13T03:52:13.891Z,11.25
2023-02-13T03:55:11.244Z,11.52
2023-02-13T03:57:59.583Z,10.85
2023-02-13T04:00:33.432Z,11.55
2023-02-13T04:03:13.442Z,8.27
2023-02-13T04:05:45.546Z,8.27
2023-02-13T04:08:12.319Z,7.43
2023-02-13T04:10:51.686Z,8.18
2023-02-13T04:13:27.420Z,6.82
2023-02-13T04:16:06.285Z,7.28
2023-02-13T04:18:33.706Z,9.75
2023-02-13T04:21:07.972Z,9.68
2023-02-13T04:23:36.744Z,7.82
2023-02-13T04:26:24.181Z,9.93
2023-02-13T04:28:50.852Z,8.60
2023-02-13T04:31:17.552Z,7.57
2023-02-13T04:33:44.281Z,8.18
2023-02-13T04:36:10.909Z,9.07
2023-02-13T04:38:37.623Z,8.20
2023-02-13T04:41:04.365Z,9.90
2023-02-13T04:43:31.023Z,11.15
2023-02-13T04:45:57.836Z,10.25
2023-02-13T04:48:24.567Z,8.30
2023-02-13T04:50:51.205Z,9.43
2023-02-13T04:53:17.921Z,8.88
2023-02-13T04:55:44.537Z,8.73
2023-02-13T04:58:11.337Z,8.23
2023-02-13T05:00:38.110Z,8.05
2023-02-13T05:03:10.613Z,7.32
2023-02-13T05:08:04.811Z,7.45
2023-02-13T05:10:31.527Z,9.55
2023-02-13T05:12:58.703Z,10.35
2023-02-13T05:15:25.818Z,9.70
2023-02-13T05:17:52.620Z,8.68
2023-02-13T05:20:19.706Z,8.10
2023-02-13T05:23:10.152Z,10.23
2023-02-13T05:25:38.625Z,7.65
2023-02-13T05:28:26.464Z,6.90
2023-02-13T05:30:53.508Z,8.95
2023-02-13T05:33:20.247Z,8.45
2023-02-13T05:35:46.870Z,8.50
2023-02-13T05:38:13.541Z,8.02
2023-02-13T05:40:40.177Z,9.73
2023-02-13T05:43:06.873Z,9.90
2023-02-13T05:45:33.528Z,9.98
2023-02-13T05:48:00.173Z,8.60
2023-02-13T05:50:26.928Z,7.38
2023-02-13T05:52:55.692Z,12.07
2023-02-13T05:55:22.333Z,10.43
2023-02-13T05:57:49.023Z,9.25
2023-02-13T06:00:16.417Z,8.90
2023-02-13T06:02:43.114Z,8.77
2023-02-13T06:05:09.788Z,8.13
2023-02-13T06:07:36.426Z,8.18
2023-02-13T06:10:03.210Z,8.95
2023-02-13T06:12:29.845Z,7.90
2023-02-13T06:14:56.491Z,8.32
2023-02-13T06:17:23.116Z,9.40
2023-02-13T06:19:49.869Z,7.30
2023-02-13T06:22:16.564Z,6.72
2023-02-13T06:24:43.209Z,7.78
2023-02-13T06:27:09.831Z,6.20
2023-02-13T06:29:36.705Z,7.95
2023-02-13T06:32:03.460Z,7.88
2023-02-13T06:34:30.213Z,8.40
2023-02-13T06:36:56.921Z,7.78
2023-02-13T06:39:23.570Z,7.97
2023-02-13T06:41:50.267Z,9.23
2023-02-13T06:44:16.901Z,8.25
2023-02-13T06:46:43.614Z,8.88
2023-02-13T06:49:10.355Z,11.88
2023-02-13T06:51:36.993Z,10.05
2023-02-13T06:54:03.752Z,9.13
2023-02-13T06:56:30.475Z,13.95
2023-02-13T06:58:57.112Z,10.43
2023-02-13T07:01:23.929Z,10.20
2023-02-13T07:03:50.798Z,8.82
2023-02-13T07:06:21.404Z,7.93
2023-02-13T07:08:48.627Z,8.43
2023-02-13T07:11:19.742Z,7.75
2023-02-13T07:13:46.393Z,8.30
2023-02-13T07:16:13.409Z,8.52
2023-02-13T07:18:40.138Z,8.75
2023-02-13T07:21:07.485Z,8.85
2023-02-13T07:23:34.449Z,7.40
2023-02-13T07:26:01.589Z,8.82
2023-02-13T07:28:29.092Z,8.55
2023-02-13T07:30:56.564Z,7.65
2023-02-13T07:33:24.209Z,11.38
2023-02-13T07:35:52.013Z,6.47
2023-02-13T07:38:19.298Z,9.18
2023-02-13T07:40:46.335Z,7.32
2023-02-13T07:43:13.404Z,7.50
2023-02-13T07:45:40.076Z,7.97
2023-02-13T07:48:06.771Z,7.63
2023-02-13T07:50:33.410Z,8.00
2023-02-13T07:53:02.232Z,5.07
2023-02-13T07:55:30.204Z,6.80
2023-02-13T07:57:57.225Z,8.15
2023-02-13T08:00:23.877Z,7.10
2023-02-13T08:02:50.541Z,6.82
2023-02-13T08:05:17.302Z,8.05
2023-02-13T08:07:43.948Z,8.55
2023-02-13T08:10:31.963Z,7.68
2023-02-13T08:12:58.854Z,7.97
2023-02-13T08:15:26.054Z,7.65
2023-02-13T08:17:52.795Z,10.30
2023-02-13T08:20:19.696Z,7.82
2023-02-13T08:22:46.317Z,6.43
2023-02-13T08:25:13.397Z,7.95
2023-02-13T08:27:40.057Z,9.10
2023-02-13T08:30:07.951Z,8.90
2023-02-13T08:32:44.924Z,8.20
2023-02-13T08:35:19.613Z,8.13
2023-02-13T08:37:47.613Z,8.70
2023-02-13T08:40:14.788Z,9.65
2023-02-13T08:42:41.752Z,9.20
2023-02-13T08:45:10.541Z,8.23
2023-02-13T08:47:38.105Z,7.47
2023-02-13T08:50:05.530Z,8.63
2023-02-13T08:52:32.432Z,7.45
2023-02-13T08:54:59.096Z,7.90
2023-02-13T08:57:25.822Z,11.95
2023-02-13T08:59:52.480Z,8.25
2023-02-13T09:02:19.117Z,11.50
2023-02-13T09:04:45.834Z,9.52
2023-02-13T09:07:12.581Z,7.32
2023-02-13T09:09:39.233Z,12.57
2023-02-13T09:12:05.961Z,6.45
2023-02-13T09:14:33.682Z,10.63
2023-02-13T09:17:00.493Z,10.20
2023-02-13T09:19:27.201Z,8.32
2023-02-13T09:21:53.847Z,8.30
2023-02-13T09:24:20.519Z,9.07
2023-02-13T09:26:47.263Z,8.25
2023-02-13T09:29:14.053Z,8.02
2023-02-13T09:31:40.828Z,14.93
2023-02-13T09:34:07.574Z,7.55
2023-02-13T09:36:34.385Z,7.72
2023-02-13T09:39:01.076Z,9.73
2023-02-13T09:41:36.383Z,8.82
2023-02-13T09:44:12.931Z,8.38
2023-02-13T09:46:41.161Z,8.13
2023-02-13T09:49:20.983Z,11.75
2023-02-13T09:51:54.417Z,9.35
2023-02-13T09:54:21.074Z,11.50
2023-02-13T09:57:01.576Z,11.43
2023-02-13T09:59:39.926Z,8.88
2023-02-13T10:02:53.121Z,10.80
2023-02-13T10:08:10.653Z,8.95
2023-02-13T10:10:46.342Z,7.90
2023-02-13T10:13:29.989Z,8.48
2023-02-13T10:16:12.389Z,9.23
2023-02-13T10:19:20.455Z,13.48
2023-02-13T10:21:53.606Z,9.10
2023-02-13T10:24:44.724Z,9.13
2023-02-13T10:27:59.266Z,8.30
2023-02-13T10:30:30.908Z,8.68
2023-02-13T10:33:19.508Z,9.77
2023-02-13T10:36:01.555Z,7.35
2023-02-13T10:38:31.507Z,8.77
2023-02-13T10:41:17.095Z,9.38
2023-02-13T10:43:52.798Z,5.07
2023-02-13T10:46:30.773Z,7.20
2023-02-13T10:49:16.290Z,7.82
2023-02-13T10:51:55.950Z,7.07
2023-02-13T10:54:40.401Z,6.55
2023-02-13T10:57:10.125Z,8.40
2023-02-13T10:59:45.810Z,7.18
2023-02-13T11:02:25.993Z,7.97
2023-02-13T11:04:59.318Z,12.30
2023-02-13T11:07:27.144Z,9.10
2023-02-13T11:10:01.568Z,7.53
2023-02-13T11:12:31.374Z,9.77
2023-02-13T11:15:06.597Z,9.38
2023-02-13T11:17:37.108Z,9.30
2023-02-13T11:20:36.727Z,9.40
2023-02-13T11:23:32.183Z,8.60
2023-02-13T11:26:04.928Z,9.02
2023-02-13T11:28:37.171Z,10.93
2023-02-13T11:31:27.807Z,11.00
2023-02-13T11:33:55.365Z,8.45
2023-02-13T11:36:33.032Z,9.38
2023-02-13T11:39:02.984Z,8.63
2023-02-13T11:41:31.322Z,10.48
2023-02-13T11:44:02.385Z,5.97
2023-02-13T11:46:43.083Z,7.47
2023-02-13T11:49:20.473Z,7.32
2023-02-13T11:51:55.228Z,8.25
2023-02-13T11:54:43.095Z,9.00
2023-02-13T11:57:23.630Z,9.35
2023-02-13T11:59:52.521Z,8.43
2023-02-13T12:02:29.066Z,13.02
2023-02-13T12:05:16.820Z,9.57
2023-02-13T12:07:45.396Z,9.43
2023-02-13T12:10:37.873Z,6.93
2023-02-13T12:13:15.602Z,7.68
2023-02-13T12:15:44.470Z,8.50
2023-02-13T12:18:32.269Z,9.00
2023-02-13T12:21:21.273Z,11.90
2023-02-13T12:24:42.132Z,8.50
2023-02-13T12:27:42.805Z,8.98
2023-02-13T12:30:12.149Z,10.10
2023-02-13T12:32:57.413Z,8.38
2023-02-13T12:35:34.246Z,7.88
2023-02-13T12:38:05.171Z,7.07
2023-02-13T12:40:58.345Z,8.68
2023-02-13T12:43:34.414Z,9.38
2023-02-13T12:46:39.944Z,8.50
2023-02-13T12:49:49.939Z,8.48
2023-02-13T12:52:55.155Z,8.10
2023-02-13T12:55:27.985Z,9.68
2023-02-13T12:58:20.271Z,6.82
2023-02-13T13:01:08.803Z,9.85
2023-02-13T13:03:59.778Z,6.30
2023-02-13T13:07:17.433Z,7.82
2023-02-13T13:09:59.710Z,7.63
2023-02-13T13:12:52.608Z,7.57
2023-02-13T13:15:34.674Z,8.48
2023-02-13T13:18:16.362Z,8.70
2023-02-13T13:20:59.040Z,9.00
2023-02-13T13:23:29.897Z,8.85
2023-02-13T13:26:32.087Z,8.05
2023-02-13T13:29:01.405Z,8.60
2023-02-13T13:31:28.855Z,7.38
2023-02-13T13:34:01.817Z,8.07
2023-02-13T13:36:45.610Z,9.00
2023-02-13T13:39:42.672Z,11.00
2023-02-13T13:42:20.675Z,11.93
2023-02-13T13:45:00.871Z,9.52
2023-02-13T13:48:12.059Z,8.75
2023-02-13T13:50:41.918Z,11.02
2023-02-13T13:53:10.266Z,9.45
2023-02-13T13:56:02.332Z,13.15
2023-02-13T13:58:42.982Z,9.15
2023-02-13T14:01:42.181Z,10.82
2023-02-13T14:04:33.518Z,8.50
2023-02-13T14:07:00.098Z,8.75
2023-02-13T14:09:26.697Z,8.75
2023-02-13T14:11:58.501Z,9.90
2023-02-13T14:14:28.192Z,8.73
2023-02-13T14:16:57.357Z,9.77
2023-02-13T14:19:33.953Z,9.57
2023-02-13T14:22:18.949Z,12.20
2023-02-13T14:24:53.787Z,9.20
2023-02-13T14:27:34.565Z,8.82
2023-02-13T14:30:01.939Z,9.77
2023-02-13T14:32:34.022Z,10.23
2023-02-13T14:35:05.231Z,8.75
2023-02-13T14:37:36.815Z,9.63
2023-02-13T14:40:15.752Z,8.13
2023-02-13T14:42:48.212Z,9.10
2023-02-13T14:47:56.806Z,10.68
2023-02-13T14:50:45.891Z,10.02
2023-02-13T14:53:24.436Z,9.93
2023-02-13T14:55:58.043Z,7.60
2023-02-13T14:58:30.914Z,8.18
2023-02-13T15:01:05.740Z,11.38
2023-02-13T15:03:49.265Z,12.98
2023-02-13T15:06:39.476Z,12.05
2023-02-13T15:09:27.697Z,13.50
2023-02-13T15:11:54.368Z,12.50
2023-02-13T15:14:33.602Z,9.20
2023-02-13T15:17:20.093Z,12.55
2023-02-13T15:19:53.639Z,13.10
2023-02-13T15:22:27.798Z,11.63
2023-02-13T15:24:54.705Z,11.02
2023-02-13T15:27:26.982Z,11.55
2023-02-13T15:30:01.161Z,11.27
2023-02-13T15:32:34.551Z,12.27
2023-02-13T15:35:01.330Z,10.07
2023-02-13T15:37:30.389Z,15.98
2023-02-13T15:40:15.280Z,14.40
2023-02-13T15:42:41.990Z,13.10
2023-02-13T15:45:16.520Z,11.38
2023-02-13T15:47:45.703Z,16.50
2023-02-13T15:50:21.881Z,12.23
2023-02-13T15:52:48.753Z,11.60
2023-02-13T15:55:27.828Z,11.00
2023-02-13T15:57:57.441Z,11.65
2023-02-13T16:00:36.222Z,12.48
2023-02-13T16:03:06.166Z,11.88
2023-02-13T16:05:41.392Z,12.32
2023-02-13T16:08:29.228Z,12.27
2023-02-13T16:11:24.131Z,12.43
2023-02-13T16:14:08.580Z,6.57
2023-02-13T16:16:53.153Z,14.85
2023-02-13T16:19:41.116Z,9.85
2023-02-13T16:22:17.104Z,15.05
2023-02-13T16:24:53.957Z,12.02
2023-02-13T16:27:25.918Z,7.32
2023-02-13T16:30:00.880Z,11.50
2023-02-13T16:32:41.260Z,11.05
2023-02-13T16:35:31.066Z,12.93
2023-02-13T16:38:03.260Z,12.88
2023-02-13T16:40:40.696Z,15.02
2023-02-13T16:43:33.100Z,13.65
2023-02-13T16:46:33.555Z,11.70
2023-02-13T16:49:09.368Z,13.23
2023-02-13T16:51:58.729Z,13.40
2023-02-13T16:54:47.921Z,15.32
2023-02-13T16:57:14.526Z,12.75
2023-02-13T17:00:01.398Z,14.07
2023-02-13T17:02:35.056Z,14.10
2023-02-13T17:05:07.557Z,13.35
2023-02-13T17:07:43.737Z,10.88
2023-02-13T17:10:36.224Z,14.43
2023-02-13T17:13:08.824Z,12.93
2023-02-13T17:15:35.503Z,13.52
2023-02-13T17:18:02.119Z,10.15
2023-02-13T17:20:31.865Z,14.93
2023-02-13T17:23:00.958Z,11.93
2023-02-13T17:25:38.040Z,12.02
2023-02-13T17:28:14.363Z,9.02
2023-02-13T17:30:41.818Z,9.43
2023-02-13T17:33:19.406Z,9.68
2023-02-13T17:35:47.267Z,12.30
2023-02-13T17:38:14.231Z,13.27
2023-02-13T17:40:42.581Z,14.23
2023-02-13T17:43:11.648Z,12.15
2023-02-13T17:45:38.839Z,15.50
2023-02-13T17:48:05.874Z,12.88
2023-02-13T17:50:33.774Z,12.43
2023-02-13T17:53:06.725Z,13.50
2023-02-13T17:55:34.806Z,13.00
2023-02-13T17:58:02.121Z,13.77
2023-02-13T18:00:32.377Z,17.95
2023-02-13T18:03:00.495Z,11.15
2023-02-13T18:05:28.477Z,13.15
2023-02-13T18:07:55.338Z,8.02
2023-02-13T18:10:27.662Z,14.93
2023-02-13T18:15:23.046Z,13.15
2023-02-13T18:17:50.293Z,13.07
2023-02-13T18:20:20.670Z,11.55
2023-02-13T18:22:50.572Z,11.23
2023-02-13T18:25:18.883Z,11.45
2023-02-13T18:27:45.815Z,11.18
2023-02-13T18:30:15.593Z,14.70
2023-02-13T18:32:42.353Z,13.25
2023-02-13T18:35:09.030Z,14.38
2023-02-13T18:37:35.881Z,13.63
2023-02-13T18:40:02.616Z,14.48
2023-02-13T18:42:29.213Z,14.63
2023-02-13T18:44:55.931Z,14.05
2023-02-13T18:47:22.566Z,14.30
2023-02-13T18:49:49.863Z,13.55
2023-02-13T18:52:16.555Z,13.38
2023-02-13T18:54:43.234Z,12.00
2023-02-13T18:57:09.938Z,13.52
2023-02-13T18:59:36.642Z,13.82
2023-02-13T19:02:04.332Z,12.18
2023-02-13T19:04:31.745Z,14.75
2023-02-13T19:06:58.432Z,15.90
2023-02-13T19:09:25.105Z,12.85
2023-02-13T19:11:51.807Z,13.93
2023-02-13T19:14:18.559Z,12.48
2023-02-13T19:16:45.350Z,16.98
2023-02-13T19:19:12.098Z,11.73
2023-02-13T19:21:39.395Z,14.52
2023-02-13T19:24:08.974Z,12.68
2023-02-13T19:26:36.566Z,11.57
2023-02-13T19:29:04.279Z,13.95
2023-02-13T19:31:32.729Z,11.52
2023-02-13T19:34:00.679Z,14.30
2023-02-13T19:36:29.752Z,14.98
2023-02-13T19:39:08.005Z,11.68
2023-02-13T19:41:35.932Z,12.77
2023-02-13T19:44:02.921Z,14.18
2023-02-13T19:46:31.945Z,12.23
2023-02-13T19:48:59.496Z,11.50
2023-02-13T19:51:28.407Z,11.45
2023-02-13T19:54:06.424Z,8.80
2023-02-13T19:56:35.845Z,10.98
2023-02-13T19:59:02.758Z,9.10
2023-02-13T20:01:30.063Z,13.13
2023-02-13T20:03:57.419Z,10.57
2023-02-13T20:06:32.470Z,11.38
2023-02-13T20:09:01.689Z,9.85
2023-02-13T20:11:28.940Z,11.18
2023-02-13T20:13:57.392Z,11.35
2023-02-13T20:16:24.184Z,13.27
2023-02-13T20:18:50.887Z,11.98
2023-02-13T20:21:18.708Z,12.15
2023-02-13T20:23:50.810Z,8.23
2023-02-13T20:26:17.967Z,9.45
2023-02-13T20:28:46.709Z,13.63
2023-02-13T20:31:19.477Z,12.82
2023-02-13T20:33:47.021Z,14.95
2023-02-13T20:36:19.183Z,12.43
2023-02-13T20:38:46.217Z,11.80
2023-02-13T20:41:15.933Z,11.95
2023-02-13T20:43:42.892Z,10.93
2023-02-13T20:46:10.518Z,13.88
2023-02-13T20:48:39.504Z,13.25
2023-02-13T20:51:09.662Z,12.32
2023-02-13T20:53:36.373Z,13.07
2023-02-13T20:56:12.498Z,12.00
2023-02-13T20:58:40.060Z,14.38
2023-02-13T21:01:17.961Z,12.40
2023-02-13T21:03:45.529Z,11.65
2023-02-13T21:06:12.241Z,12.30
2023-02-13T21:08:39.416Z,11.98
2023-02-13T21:11:07.825Z,9.40
2023-02-13T21:13:35.408Z,13.50
2023-02-13T21:16:07.806Z,14.02
2023-02-13T21:21:01.872Z,12.82
2023-02-13T21:23:28.637Z,14.55
2023-02-13T21:25:55.332Z,10.43
2023-02-13T21:28:22.420Z,11.70
2023-02-13T21:30:49.980Z,10.35
2023-02-13T21:33:17.715Z,10.77
2023-02-13T21:35:44.506Z,12.52
2023-02-13T21:38:11.552Z,10.00
2023-02-13T21:40:38.538Z,9.98
2023-02-13T21:43:06.836Z,13.07
2023-02-13T21:45:33.791Z,11.90
2023-02-13T21:48:00.497Z,9.85
2023-02-13T21:50:27.387Z,8.93
2023-02-13T21:52:54.068Z,11.07
2023-02-13T21:55:20.826Z,12.07
2023-02-13T21:57:47.717Z,8.40
2023-02-13T22:00:15.684Z,6.65
2023-02-13T22:02:42.493Z,8.60
2023-02-13T22:05:09.267Z,9.70
2023-02-13T22:07:55.873Z,9.98
2023-02-13T22:10:22.673Z,12.00
2023-02-13T22:12:53.261Z,8.90
2023-02-13T22:15:20.609Z,10.80
2023-02-13T22:17:47.430Z,11.50
2023-02-13T22:20:14.362Z,13.88
2023-02-13T22:22:41.137Z,12.10
2023-02-13T22:25:08.839Z,11.35
2023-02-13T22:27:36.392Z,11.35
2023-02-13T22:30:03.950Z,11.25
2023-02-13T22:32:31.138Z,9.40
2023-02-13T22:34:57.896Z,9.05
2023-02-13T22:37:24.616Z,10.05
2023-02-13T22:39:51.374Z,11.85
2023-02-13T22:42:18.061Z,11.45
2023-02-13T22:44:44.812Z,11.38
2023-02-13T22:47:11.510Z,10.15
2023-02-13T22:49:38.632Z,9.73
2023-02-13T22:52:06.354Z,9.07
2023-02-13T22:54:33.073Z,11.18
2023-02-13T22:56:59.743Z,10.48
2023-02-13T22:59:26.438Z,15.55
2023-02-13T23:01:53.318Z,14.13
2023-02-13T23:04:20.084Z,14.43
2023-02-13T23:06:46.906Z,11.48
2023-02-13T23:09:13.628Z,17.05
2023-02-13T23:11:58.858Z,12.57
2023-02-13T23:14:25.634Z,11.93
2023-02-13T23:17:10.819Z,12.20
2023-02-13T23:19:37.591Z,12.35
2023-02-13T23:22:04.541Z,12.20
2023-02-13T23:24:31.366Z,11.68
2023-02-13T23:26:59.147Z,14.00
2023-02-13T23:29:26.311Z,13.07
2023-02-13T23:31:53.196Z,13.70
2023-02-13T23:34:20.046Z,12.27
2023-02-13T23:36:46.852Z,10.95
2023-02-13T23:39:13.878Z,13.63
2023-02-13T23:41:40.586Z,12.27
2023-02-13T23:44:07.244Z,12.98
2023-02-13T23:46:34.073Z,12.10
2023-02-13T23:49:00.699Z,9.68
2023-02-13T23:51:27.401Z,13.35
2023-02-13T23:53:56.258Z,11.63
2023-02-13T23:56:24.837Z,11.05
2023-02-13T23:58:51.602Z,12.68
